createdAt,value
2019-02-06T01:55:25.303Z,-1.40
2019-02-06T01:58:37.740Z,-1.40
2019-02-06T02:04:41.535Z,-1.40
2019-02-06T02:24:51.428Z,-1.70
2019-02-06T02:28:11.040Z,-1.70
2019-02-06T02:31:24.715Z,-1.80
2019-02-06T02:34:25.850Z,-1.80
2019-02-06T02:37:33.795Z,-2.00
2019-02-06T02:43:50.636Z,-2.10
2019-02-06T02:50:58.099Z,-1.80
2019-02-06T02:57:17.882Z,-1.90
2019-02-06T03:03:50.382Z,-1.90
2019-02-06T03:06:49.720Z,-1.80
2019-02-06T03:10:13.509Z,-1.80
2019-02-06T03:13:01.038Z,-1.80
2019-02-06T03:16:31.873Z,-1.80
2019-02-06T03:19:40.882Z,-1.80
2019-02-06T03:22:47.011Z,-1.90
2019-02-06T03:25:52.114Z,-1.80
2019-02-06T03:29:11.986Z,-1.70
2019-02-06T03:38:21.351Z,-2.00
2019-02-06T03:41:32.712Z,-2.10
2019-02-06T03:44:13.254Z,-2.00
2019-02-06T03:50:14.641Z,-2.10
2019-02-06T03:54:04.980Z,-2.20
2019-02-06T03:56:58.550Z,-2.30
2019-02-06T04:00:40.519Z,-2.20
2019-02-06T04:10:19.034Z,-2.20
2019-02-06T04:13:40.257Z,-2.20
2019-02-06T04:16:37.563Z,-2.20
2019-02-06T04:19:54.700Z,-2.20
2019-02-06T04:23:21.269Z,-2.20
2019-02-06T04:26:34.286Z,-2.20
2019-02-06T04:29:41.847Z,-2.20
2019-02-06T04:32:54.605Z,-2.20
2019-02-06T04:35:55.741Z,-2.20
2019-02-06T04:39:01.853Z,-2.30
2019-02-06T04:45:03.262Z,-2.40
2019-02-06T04:48:11.584Z,-2.40
2019-02-06T04:50:57.853Z,-2.40
2019-02-06T04:54:03.158Z,-2.40
2019-02-06T04:57:09.353Z,-2.50
2019-02-06T05:07:05.002Z,-2.50
2019-02-06T05:10:18.919Z,-2.40
2019-02-06T05:17:01.241Z,-2.50
2019-02-06T05:20:11.118Z,-2.60
2019-02-06T05:23:10.278Z,-2.60
2019-02-06T05:29:54.772Z,-2.60
2019-02-06T05:33:09.505Z,-2.70
2019-02-06T05:36:24.538Z,-2.80
2019-02-06T05:39:21.030Z,-2.80
2019-02-06T05:50:02.293Z,-2.90
2019-02-06T05:57:27.439Z,-2.80
2019-02-06T06:00:52.757Z,-2.70
2019-02-06T06:09:36.188Z,-2.40
2019-02-06T06:12:27.953Z,-2.40
2019-02-06T06:19:14.915Z,-2.30
2019-02-06T06:22:00.958Z,-2.40
2019-02-06T06:25:03.020Z,-2.50
2019-02-06T06:28:07.508Z,-2.50
2019-02-06T06:30:51.168Z,-2.50
2019-02-06T06:33:33.096Z,-2.60
2019-02-06T06:36:08.413Z,-2.50
2019-02-06T06:38:46.241Z,-2.60
2019-02-06T06:41:27.840Z,-2.70
2019-02-06T06:44:07.972Z,-2.70
2019-02-06T06:47:03.409Z,-2.70
2019-02-06T06:49:58.982Z,-2.60
2019-02-06T06:52:53.426Z,-2.50
2019-02-06T06:55:44.001Z,-2.50
2019-02-06T06:58:47.322Z,-2.60
2019-02-06T07:01:34.289Z,-2.60
2019-02-06T07:04:17.973Z,-2.60
2019-02-06T07:07:11.032Z,-2.60
2019-02-06T07:10:07.819Z,-2.70
2019-02-06T07:13:03.426Z,-2.60
2019-02-06T07:16:02.687Z,-2.60
2019-02-06T07:21:47.305Z,-2.50
2019-02-06T07:24:26.484Z,-2.50
2019-02-06T07:27:07.736Z,-2.50
2019-02-06T07:29:45.148Z,-2.50
2019-02-06T07:32:29.356Z,-2.40
2019-02-06T07:35:53.927Z,-2.50
2019-02-06T07:38:36.055Z,-2.40
2019-02-06T07:41:18.269Z,-2.40
2019-02-06T07:43:52.273Z,-2.40
2019-02-06T07:46:51.015Z,-2.30
2019-02-06T07:49:54.004Z,-2.20
2019-02-06T07:53:05.956Z,-2.10
2019-02-06T07:56:11.535Z,-2.00
2019-02-06T07:58:53.606Z,-1.90
2019-02-06T08:01:34.667Z,-1.80
2019-02-06T08:04:21.348Z,-1.70
2019-02-06T08:14:46.807Z,-1.40
2019-02-06T08:18:02.096Z,-1.40
2019-02-06T08:21:30.378Z,-1.20
2019-02-06T08:24:19.168Z,-1.00
2019-02-06T08:27:50.256Z,-0.90
2019-02-06T08:38:05.711Z,-0.40
2019-02-06T08:48:37.239Z,-0.10
2019-02-06T08:55:25.234Z,0.10
2019-02-06T08:58:42.190Z,0.30
2019-02-06T11:36:58.366Z,4.20
2019-02-06T11:39:36.408Z,4.20
2019-02-06T11:42:17.280Z,4.30
2019-02-06T11:45:16.419Z,4.40
2019-02-06T11:47:29.951Z,4.40
2019-02-06T11:50:28.293Z,4.60
2019-02-06T11:52:42.503Z,4.50
2019-02-06T11:55:28.289Z,4.50
2019-02-06T11:58:04.249Z,4.60
2019-02-06T12:01:29.557Z,4.50
2019-02-06T12:03:33.746Z,4.60
2019-02-06T12:06:21.757Z,4.60
2019-02-06T12:09:01.660Z,4.60
2019-02-06T12:11:39.603Z,4.70
2019-02-06T12:14:14.085Z,4.70
2019-02-06T12:19:54.396Z,4.70
2019-02-06T12:22:34.484Z,4.70
2019-02-06T12:25:13.811Z,4.90
2019-02-06T12:27:49.031Z,4.90
2019-02-06T12:30:40.983Z,4.90
2019-02-06T12:33:13.022Z,5.00
2019-02-06T12:36:16.920Z,4.90
2019-02-06T12:38:58.041Z,5.00
2019-02-06T12:41:35.724Z,5.00
2019-02-06T12:44:06.275Z,5.20
2019-02-06T12:46:39.933Z,5.20
2019-02-06T12:49:20.036Z,5.40
2019-02-06T12:51:52.661Z,5.40
2019-02-06T12:54:33.997Z,5.40
2019-02-06T12:57:23.175Z,5.30
2019-02-06T13:00:06.052Z,5.30
2019-02-06T13:02:52.446Z,5.50
2019-02-06T13:09:12.851Z,5.70
2019-02-06T13:15:43.567Z,5.70
2019-02-06T13:18:25.686Z,5.80
2019-02-06T13:24:05.496Z,5.90
2019-02-06T13:27:01.590Z,6.00
2019-02-06T13:29:54.473Z,6.10
2019-02-06T13:32:58.445Z,6.10
2019-02-06T13:35:41.970Z,6.30
2019-02-06T13:38:43.826Z,6.30
2019-02-06T13:41:43.807Z,6.40
2019-02-06T13:44:10.722Z,6.50
2019-02-06T13:46:53.591Z,6.50
2019-02-06T13:49:28.003Z,6.50
2019-02-06T13:52:22.857Z,6.50
2019-02-06T13:55:37.286Z,6.60
2019-02-06T13:58:20.397Z,6.50
2019-02-06T14:01:26.174Z,6.50
2019-02-06T14:04:04.383Z,6.50
2019-02-06T14:06:41.656Z,6.40
2019-02-06T14:09:54.364Z,6.60
2019-02-06T14:12:52.183Z,6.70
2019-02-06T14:15:56.929Z,6.80
2019-02-06T14:18:31.115Z,6.70
2019-02-06T14:21:09.858Z,6.80
2019-02-06T14:23:54.358Z,6.90
2019-02-06T14:26:48.498Z,6.90
2019-02-06T14:29:54.420Z,6.90
2019-02-06T14:33:23.922Z,7.00
2019-02-06T14:36:53.118Z,7.20
2019-02-06T14:40:14.485Z,7.40
2019-02-06T14:43:41.987Z,7.40
2019-02-06T14:46:46.245Z,7.30
2019-02-06T14:49:57.605Z,7.30
2019-02-06T14:53:10.437Z,7.10
2019-02-06T14:56:19.588Z,7.00
2019-02-06T14:59:46.408Z,7.00
2019-02-06T15:03:02.477Z,7.10
2019-02-06T15:06:04.359Z,7.00
2019-02-06T15:09:35.541Z,7.10
2019-02-06T15:12:59.389Z,7.00
2019-02-06T15:16:39.300Z,7.00
2019-02-06T15:19:43.956Z,6.90
2019-02-06T15:23:00.065Z,6.80
2019-02-06T15:26:05.681Z,6.70
2019-02-06T15:29:32.313Z,6.60
2019-02-06T15:36:44.114Z,6.40
2019-02-06T15:44:11.763Z,6.20
2019-02-06T15:47:31.186Z,6.10
2019-02-06T15:50:27.090Z,6.00
2019-02-06T15:53:22.683Z,5.80
2019-02-06T16:01:00.009Z,5.40
2019-02-06T16:04:28.669Z,5.20
2019-02-06T16:07:24.378Z,5.10
2019-02-06T16:14:49.478Z,5.00
2019-02-06T16:18:00.504Z,5.00
2019-02-06T16:21:33.576Z,4.90
2019-02-06T16:24:57.805Z,4.80
2019-02-06T16:32:19.353Z,4.60
2019-02-06T16:35:19.539Z,4.50
2019-02-06T16:39:20.401Z,4.60
2019-02-06T16:42:48.940Z,4.40
2019-02-06T16:45:42.251Z,4.30
2019-02-06T16:48:49.867Z,4.00
2019-02-06T16:51:57.599Z,4.00
2019-02-06T16:56:13.161Z,3.90
2019-02-06T16:58:43.872Z,3.90
2019-02-06T17:02:36.576Z,3.70
2019-02-06T17:05:31.553Z,3.50
2019-02-06T17:09:04.200Z,3.30
2019-02-06T17:12:36.702Z,3.20
2019-02-06T17:15:59.133Z,3.20
2019-02-06T17:19:16.376Z,3.20
2019-02-06T17:22:37.940Z,3.10
2019-02-06T17:26:06.006Z,2.80
2019-02-06T17:29:07.446Z,2.60
2019-02-06T17:32:18.166Z,2.70
2019-02-06T17:35:06.236Z,2.80
2019-02-06T17:38:19.278Z,2.70
2019-02-06T17:42:34.472Z,2.50
2019-02-06T17:44:58.142Z,2.30
2019-02-06T17:48:13.311Z,2.20
2019-02-06T17:51:38.293Z,2.10
2019-02-06T17:55:07.695Z,2.10
2019-02-06T17:58:20.564Z,2.10
2019-02-06T18:01:49.004Z,2.00
2019-02-06T18:04:54.725Z,2.00
2019-02-06T18:07:39.441Z,1.90
2019-02-06T18:10:36.408Z,1.90
2019-02-06T18:13:10.190Z,1.80
2019-02-06T18:15:40.185Z,1.70
2019-02-06T18:18:27.130Z,1.70
2019-02-06T18:20:55.366Z,1.70
2019-02-06T18:23:35.244Z,1.60
2019-02-06T18:26:14.829Z,1.60
2019-02-06T18:28:55.542Z,1.70
2019-02-06T18:31:33.906Z,1.80
2019-02-06T18:34:05.970Z,1.90
2019-02-06T18:37:14.777Z,1.90
2019-02-06T18:39:46.731Z,1.80
2019-02-06T18:42:02.297Z,1.80
2019-02-06T18:44:36.773Z,1.80
2019-02-06T18:47:07.500Z,1.80
2019-02-06T18:49:56.104Z,1.80
2019-02-06T18:52:35.744Z,1.80
2019-02-06T18:55:09.622Z,1.80
2019-02-06T18:57:51.122Z,1.70
2019-02-06T19:00:32.257Z,1.80
2019-02-06T19:03:17.263Z,1.80
2019-02-06T19:05:47.966Z,1.80
2019-02-06T19:08:18.054Z,1.70
2019-02-06T19:10:58.247Z,1.80
2019-02-06T19:13:32.332Z,1.80
2019-02-06T19:16:20.608Z,1.90
2019-02-06T19:18:57.746Z,1.90
2019-02-06T19:22:56.686Z,1.90
2019-02-06T19:25:07.528Z,1.90
2019-02-06T19:27:37.691Z,1.90
2019-02-06T19:30:22.560Z,1.90
2019-02-06T19:32:57.640Z,1.90
2019-02-06T19:35:27.658Z,1.90
2019-02-06T19:38:04.064Z,1.70
2019-02-06T19:40:30.037Z,1.70
2019-02-06T19:43:02.559Z,1.60
2019-02-06T19:48:24.421Z,1.70
2019-02-06T19:51:27.676Z,1.60
2019-02-06T19:57:21.320Z,1.30
2019-02-06T19:59:59.389Z,1.20
2019-02-06T20:02:37.224Z,1.30
2019-02-06T20:05:14.038Z,1.10
2019-02-06T20:07:46.947Z,1.00
2019-02-06T20:10:26.117Z,0.80
2019-02-06T20:17:18.598Z,0.80
2019-02-06T20:24:06.802Z,0.70
2019-02-06T20:26:37.647Z,0.90
2019-02-06T20:29:11.531Z,0.80
2019-02-06T20:31:48.790Z,0.70
2019-02-06T20:34:19.723Z,0.70
2019-02-06T20:36:58.701Z,0.80
2019-02-06T20:39:29.678Z,0.90
2019-02-06T20:42:08.158Z,1.00
2019-02-06T20:44:40.623Z,1.00
2019-02-06T20:47:17.306Z,1.00
2019-02-06T20:49:55.053Z,1.00
2019-02-06T20:52:41.431Z,1.10
2019-02-06T20:55:24.946Z,1.10
2019-02-06T20:58:05.163Z,0.90
2019-02-06T21:00:58.239Z,0.90
2019-02-06T21:03:57.619Z,0.80
2019-02-06T21:09:50.920Z,0.50
2019-02-06T21:13:03.159Z,0.50
2019-02-06T21:16:43.199Z,0.50
2019-02-06T21:52:06.479Z,0.30
2019-02-06T22:02:37.924Z,0.20
2019-02-06T22:06:05.083Z,0.10
2019-02-06T22:12:58.184Z,0.00
2019-02-06T22:24:00.688Z,-0.20
2019-02-06T22:27:13.152Z,-0.30
2019-02-06T22:30:37.839Z,-0.40
2019-02-06T22:44:21.209Z,-0.50
2019-02-06T22:51:01.788Z,-0.60
2019-02-06T23:12:19.625Z,-0.40
2019-02-06T23:15:29.632Z,-0.60
2019-02-06T23:23:57.212Z,-0.50
2019-02-06T23:29:37.400Z,-0.50
2019-02-06T23:33:20.307Z,-0.40
2019-02-06T23:40:41.028Z,-0.50
2019-02-06T23:44:01.698Z,-0.60
2019-02-06T23:51:05.403Z,-0.60
2019-02-06T23:58:48.737Z,-0.70
